sensor_id;sensor_type;location;lat;lon;timestamp;temperature;humidity
6696;DHT22;3385;48.928;10.330;2023-03-31T00:02:20;7.30;99.90
6696;DHT22;3385;48.928;10.330;2023-03-31T00:04:47;7.40;99.90
6696;DHT22;3385;48.928;10.330;2023-03-31T00:07:18;7.30;99.90
6696;DHT22;3385;48.928;10.330;2023-03-31T00:09:49;7.30;99.90
6696;DHT22;3385;48.928;10.330;2023-03-31T00:12:19;7.20;99.90
6696;DHT22;3385;48.928;10.330;2023-03-31T00:14:46;7.20;99.90
6696;DHT22;3385;48.928;10.330;2023-03-31T00:17:12;7.40;99.90
6696;DHT22;3385;48.928;10.330;2023-03-31T00:19:39;7.60;99.90
6696;DHT22;3385;48.928;10.330;2023-03-31T00:22:07;7.70;99.90
6696;DHT22;3385;48.928;10.330;2023-03-31T00:24:33;7.90;99.90
6696;DHT22;3385;48.928;10.330;2023-03-31T00:27:01;7.60;99.90
6696;DHT22;3385;48.928;10.330;2023-03-31T00:29:28;7.30;99.90
6696;DHT22;3385;48.928;10.330;2023-03-31T00:31:54;7.40;99.90
6696;DHT22;3385;48.928;10.330;2023-03-31T00:34:20;7.30;99.90
6696;DHT22;3385;48.928;10.330;2023-03-31T00:36:46;7.20;99.90
6696;DHT22;3385;48.928;10.330;2023-03-31T00:39:14;7.40;99.90
6696;DHT22;3385;48.928;10.330;2023-03-31T00:41:40;7.60;99.90
6696;DHT22;3385;48.928;10.330;2023-03-31T00:51:51;7.70;99.90
6696;DHT22;3385;48.928;10.330;2023-03-31T00:54:17;7.90;99.90
6696;DHT22;3385;48.928;10.330;2023-03-31T00:56:45;7.90;99.90
6696;DHT22;3385;48.928;10.330;2023-03-31T00:59:13;7.80;99.90
6696;DHT22;3385;48.928;10.330;2023-03-31T01:01:41;7.80;99.90
6696;DHT22;3385;48.928;10.330;2023-03-31T01:04:11;7.60;99.90
6696;DHT22;3385;48.928;10.330;2023-03-31T01:06:42;7.80;99.90
6696;DHT22;3385;48.928;10.330;2023-03-31T01:09:12;7.80;99.90
6696;DHT22;3385;48.928;10.330;2023-03-31T01:11:39;7.80;99.90
6696;DHT22;3385;48.928;10.330;2023-03-31T01:14:05;7.60;99.90
6696;DHT22;3385;48.928;10.330;2023-03-31T01:16:31;7.70;99.90
6696;DHT22;3385;48.928;10.330;2023-03-31T01:18:58;7.50;99.90
6696;DHT22;3385;48.928;10.330;2023-03-31T01:50:03;7.70;99.90
6696;DHT22;3385;48.928;10.330;2023-03-31T01:57:38;7.50;99.90
6696;DHT22;3385;48.928;10.330;2023-03-31T02:00:10;7.30;99.90
6696;DHT22;3385;48.928;10.330;2023-03-31T02:02:58;7.40;99.90
6696;DHT22;3385;48.928;10.330;2023-03-31T02:05:31;7.40;99.90
6696;DHT22;3385;48.928;10.330;2023-03-31T02:08:21;7.60;99.90
6696;DHT22;3385;48.928;10.330;2023-03-31T02:10:48;7.70;99.90
6696;DHT22;3385;48.928;10.330;2023-03-31T02:13:16;8.30;99.90
6696;DHT22;3385;48.928;10.330;2023-03-31T02:15:44;7.90;99.90
6696;DHT22;3385;48.928;10.330;2023-03-31T02:18:15;7.70;99.90
6696;DHT22;3385;48.928;10.330;2023-03-31T02:20:46;7.70;99.90
6696;DHT22;3385;48.928;10.330;2023-03-31T02:23:14;7.90;99.90
6696;DHT22;3385;48.928;10.330;2023-03-31T02:25:46;7.90;99.90
6696;DHT22;3385;48.928;10.330;2023-03-31T02:28:20;7.90;99.90
6696;DHT22;3385;48.928;10.330;2023-03-31T02:31:22;7.90;99.90
6696;DHT22;3385;48.928;10.330;2023-03-31T02:33:50;8.10;99.90
6696;DHT22;3385;48.928;10.330;2023-03-31T02:36:16;8.60;99.90
6696;DHT22;3385;48.928;10.330;2023-03-31T02:38:52;8.30;99.90
6696;DHT22;3385;48.928;10.330;2023-03-31T02:41:19;8.50;99.90
6696;DHT22;3385;48.928;10.330;2023-03-31T02:43:45;9.20;99.90
6696;DHT22;3385;48.928;10.330;2023-03-31T02:46:10;9.20;99.90
6696;DHT22;3385;48.928;10.330;2023-03-31T02:48:55;9.50;99.90
6696;DHT22;3385;48.928;10.330;2023-03-31T02:51:48;9.50;99.90
6696;DHT22;3385;48.928;10.330;2023-03-31T03:08:17;8.40;99.90
6696;DHT22;3385;48.928;10.330;2023-03-31T03:11:09;8.60;99.90
6696;DHT22;3385;48.928;10.330;2023-03-31T03:13:51;8.30;99.90
6696;DHT22;3385;48.928;10.330;2023-03-31T03:16:38;8.30;99.90
6696;DHT22;3385;48.928;10.330;2023-03-31T03:19:07;8.20;99.90
6696;DHT22;3385;48.928;10.330;2023-03-31T03:21:33;8.20;99.90
6696;DHT22;3385;48.928;10.330;2023-03-31T03:23:59;8.20;99.90
6696;DHT22;3385;48.928;10.330;2023-03-31T03:26:26;8.20;99.90
6696;DHT22;3385;48.928;10.330;2023-03-31T03:28:53;8.30;99.90
6696;DHT22;3385;48.928;10.330;2023-03-31T03:31:20;8.30;99.90
6696;DHT22;3385;48.928;10.330;2023-03-31T03:33:49;8.30;99.90
6696;DHT22;3385;48.928;10.330;2023-03-31T03:36:15;8.30;99.90
6696;DHT22;3385;48.928;10.330;2023-03-31T03:38:41;8.20;99.90
6696;DHT22;3385;48.928;10.330;2023-03-31T03:41:06;8.10;99.90
6696;DHT22;3385;48.928;10.330;2023-03-31T03:43:32;8.20;99.90
6696;DHT22;3385;48.928;10.330;2023-03-31T03:45:58;8.30;99.90
6696;DHT22;3385;48.928;10.330;2023-03-31T03:48:24;8.30;99.90
6696;DHT22;3385;48.928;10.330;2023-03-31T03:50:51;8.10;99.90
6696;DHT22;3385;48.928;10.330;2023-03-31T03:53:17;7.90;99.90
6696;DHT22;3385;48.928;10.330;2023-03-31T03:55:43;8.50;99.90
6696;DHT22;3385;48.928;10.330;2023-03-31T03:58:10;8.20;99.90
6696;DHT22;3385;48.928;10.330;2023-03-31T04:00:36;8.10;99.90
6696;DHT22;3385;48.928;10.330;2023-03-31T04:03:01;8.20;99.90
6696;DHT22;3385;48.928;10.330;2023-03-31T04:05:27;7.90;99.90
6696;DHT22;3385;48.928;10.330;2023-03-31T04:07:53;7.90;99.90
6696;DHT22;3385;48.928;10.330;2023-03-31T04:10:18;7.90;99.90
6696;DHT22;3385;48.928;10.330;2023-03-31T04:12:44;7.90;99.90
6696;DHT22;3385;48.928;10.330;2023-03-31T04:15:10;7.80;99.90
6696;DHT22;3385;48.928;10.330;2023-03-31T04:17:36;7.80;99.90
6696;DHT22;3385;48.928;10.330;2023-03-31T04:20:09;7.70;99.90
6696;DHT22;3385;48.928;10.330;2023-03-31T04:22:36;7.70;99.90
6696;DHT22;3385;48.928;10.330;2023-03-31T04:25:10;7.70;99.90
6696;DHT22;3385;48.928;10.330;2023-03-31T04:27:46;7.60;99.90
6696;DHT22;3385;48.928;10.330;2023-03-31T04:30:22;7.80;99.90
6696;DHT22;3385;48.928;10.330;2023-03-31T04:32:54;7.70;99.90
6696;DHT22;3385;48.928;10.330;2023-03-31T04:35:25;7.70;99.90
6696;DHT22;3385;48.928;10.330;2023-03-31T04:37:52;7.80;99.90
6696;DHT22;3385;48.928;10.330;2023-03-31T04:40:26;7.70;99.90
6696;DHT22;3385;48.928;10.330;2023-03-31T04:42:52;7.70;99.90
6696;DHT22;3385;48.928;10.330;2023-03-31T04:45:18;7.70;99.90
6696;DHT22;3385;48.928;10.330;2023-03-31T04:47:44;7.60;99.90
6696;DHT22;3385;48.928;10.330;2023-03-31T04:50:09;7.90;99.90
6696;DHT22;3385;48.928;10.330;2023-03-31T04:52:36;7.60;99.90
6696;DHT22;3385;48.928;10.330;2023-03-31T04:55:02;7.30;99.90
6696;DHT22;3385;48.928;10.330;2023-03-31T04:57:28;7.50;99.90
6696;DHT22;3385;48.928;10.330;2023-03-31T04:59:53;7.50;99.90
6696;DHT22;3385;48.928;10.330;2023-03-31T05:02:20;7.40;99.90
6696;DHT22;3385;48.928;10.330;2023-03-31T05:04:49;7.40;99.90
6696;DHT22;3385;48.928;10.330;2023-03-31T05:07:19;7.20;99.90
6696;DHT22;3385;48.928;10.330;2023-03-31T05:09:45;7.20;99.90
6696;DHT22;3385;48.928;10.330;2023-03-31T05:12:11;7.30;99.90
6696;DHT22;3385;48.928;10.330;2023-03-31T05:14:37;7.40;99.90
6696;DHT22;3385;48.928;10.330;2023-03-31T05:17:02;7.40;99.90
6696;DHT22;3385;48.928;10.330;2023-03-31T05:19:28;7.40;99.90
6696;DHT22;3385;48.928;10.330;2023-03-31T05:21:54;7.40;99.90
6696;DHT22;3385;48.928;10.330;2023-03-31T05:24:19;8.10;99.90
6696;DHT22;3385;48.928;10.330;2023-03-31T05:26:45;7.60;99.90
6696;DHT22;3385;48.928;10.330;2023-03-31T05:29:17;7.60;99.90
6696;DHT22;3385;48.928;10.330;2023-03-31T05:31:43;7.70;99.90
6696;DHT22;3385;48.928;10.330;2023-03-31T05:34:09;7.80;99.90
6696;DHT22;3385;48.928;10.330;2023-03-31T05:36:34;7.90;99.90
6696;DHT22;3385;48.928;10.330;2023-03-31T05:39:04;8.00;99.90
6696;DHT22;3385;48.928;10.330;2023-03-31T05:41:30;8.00;99.90
6696;DHT22;3385;48.928;10.330;2023-03-31T05:43:56;8.10;99.90
6696;DHT22;3385;48.928;10.330;2023-03-31T05:46:22;8.10;99.90
6696;DHT22;3385;48.928;10.330;2023-03-31T05:48:48;8.00;99.90
6696;DHT22;3385;48.928;10.330;2023-03-31T05:51:13;8.00;99.90
6696;DHT22;3385;48.928;10.330;2023-03-31T05:53:39;8.00;99.90
6696;DHT22;3385;48.928;10.330;2023-03-31T05:56:06;8.00;99.90
6696;DHT22;3385;48.928;10.330;2023-03-31T05:58:34;7.90;99.90
6696;DHT22;3385;48.928;10.330;2023-03-31T06:01:05;8.00;99.90
6696;DHT22;3385;48.928;10.330;2023-03-31T06:03:33;8.30;99.90
6696;DHT22;3385;48.928;10.330;2023-03-31T06:05:58;8.20;99.90
6696;DHT22;3385;48.928;10.330;2023-03-31T06:08:24;8.20;99.90
6696;DHT22;3385;48.928;10.330;2023-03-31T06:14:12;8.20;99.90
6696;DHT22;3385;48.928;10.330;2023-03-31T06:16:38;8.20;99.90
6696;DHT22;3385;48.928;10.330;2023-03-31T06:19:03;8.10;99.90
6696;DHT22;3385;48.928;10.330;2023-03-31T06:21:29;8.70;99.90
6696;DHT22;3385;48.928;10.330;2023-03-31T06:23:55;8.10;99.90
6696;DHT22;3385;48.928;10.330;2023-03-31T06:26:23;8.20;99.90
6696;DHT22;3385;48.928;10.330;2023-03-31T06:28:49;8.20;99.90
6696;DHT22;3385;48.928;10.330;2023-03-31T06:31:18;8.20;99.90
6696;DHT22;3385;48.928;10.330;2023-03-31T06:33:43;8.30;99.90
6696;DHT22;3385;48.928;10.330;2023-03-31T06:36:12;8.20;99.90
6696;DHT22;3385;48.928;10.330;2023-03-31T06:38:38;8.30;99.90
6696;DHT22;3385;48.928;10.330;2023-03-31T06:41:05;9.10;99.90
6696;DHT22;3385;48.928;10.330;2023-03-31T06:43:31;8.30;99.90
6696;DHT22;3385;48.928;10.330;2023-03-31T06:45:57;8.30;99.90
6696;DHT22;3385;48.928;10.330;2023-03-31T06:48:24;8.30;99.90
6696;DHT22;3385;48.928;10.330;2023-03-31T06:50:50;8.20;99.90
6696;DHT22;3385;48.928;10.330;2023-03-31T06:53:16;8.70;99.90
6696;DHT22;3385;48.928;10.330;2023-03-31T06:55:41;8.30;99.90
6696;DHT22;3385;48.928;10.330;2023-03-31T06:58:07;8.30;99.90
6696;DHT22;3385;48.928;10.330;2023-03-31T07:00:33;8.40;99.90
6696;DHT22;3385;48.928;10.330;2023-03-31T07:02:59;8.30;99.90
6696;DHT22;3385;48.928;10.330;2023-03-31T07:05:26;8.20;99.90
6696;DHT22;3385;48.928;10.330;2023-03-31T07:07:57;8.30;99.90
6696;DHT22;3385;48.928;10.330;2023-03-31T07:10:25;8.20;99.90
6696;DHT22;3385;48.928;10.330;2023-03-31T07:12:51;8.50;99.90
6696;DHT22;3385;48.928;10.330;2023-03-31T07:15:16;8.10;99.90
6696;DHT22;3385;48.928;10.330;2023-03-31T07:17:42;8.20;99.90
6696;DHT22;3385;48.928;10.330;2023-03-31T07:20:10;8.20;99.90
6696;DHT22;3385;48.928;10.330;2023-03-31T07:22:43;8.20;99.90
6696;DHT22;3385;48.928;10.330;2023-03-31T07:25:11;8.30;99.90
6696;DHT22;3385;48.928;10.330;2023-03-31T07:27:39;8.20;99.90
6696;DHT22;3385;48.928;10.330;2023-03-31T07:30:06;8.20;99.90
6696;DHT22;3385;48.928;10.330;2023-03-31T07:32:31;8.30;99.90
6696;DHT22;3385;48.928;10.330;2023-03-31T07:34:58;8.20;99.90
6696;DHT22;3385;48.928;10.330;2023-03-31T07:37:24;8.20;99.90
6696;DHT22;3385;48.928;10.330;2023-03-31T07:39:50;8.10;99.90
6696;DHT22;3385;48.928;10.330;2023-03-31T07:42:15;8.20;99.90
6696;DHT22;3385;48.928;10.330;2023-03-31T07:44:41;8.40;99.90
6696;DHT22;3385;48.928;10.330;2023-03-31T07:47:07;8.20;99.90
6696;DHT22;3385;48.928;10.330;2023-03-31T07:49:33;8.20;99.90
6696;DHT22;3385;48.928;10.330;2023-03-31T07:52:00;8.30;99.90
6696;DHT22;3385;48.928;10.330;2023-03-31T07:54:26;8.50;99.90
6696;DHT22;3385;48.928;10.330;2023-03-31T07:56:52;8.50;99.90
6696;DHT22;3385;48.928;10.330;2023-03-31T07:59:18;4.30;99.90
6696;DHT22;3385;48.928;10.330;2023-03-31T08:01:45;8.10;99.90
6696;DHT22;3385;48.928;10.330;2023-03-31T08:04:11;8.30;99.90
6696;DHT22;3385;48.928;10.330;2023-03-31T08:06:38;8.30;99.90
6696;DHT22;3385;48.928;10.330;2023-03-31T08:09:04;8.20;99.90
6696;DHT22;3385;48.928;10.330;2023-03-31T08:11:31;8.10;99.90
6696;DHT22;3385;48.928;10.330;2023-03-31T08:13:57;8.40;99.90
6696;DHT22;3385;48.928;10.330;2023-03-31T08:16:23;8.40;99.90
6696;DHT22;3385;48.928;10.330;2023-03-31T08:18:49;8.60;99.90
6696;DHT22;3385;48.928;10.330;2023-03-31T08:21:15;8.80;99.90
6696;DHT22;3385;48.928;10.330;2023-03-31T08:23:41;8.80;99.90
6696;DHT22;3385;48.928;10.330;2023-03-31T08:26:08;9.00;99.90
6696;DHT22;3385;48.928;10.330;2023-03-31T08:28:34;9.50;99.90
6696;DHT22;3385;48.928;10.330;2023-03-31T08:31:05;9.10;99.90
6696;DHT22;3385;48.928;10.330;2023-03-31T08:33:32;9.50;99.90
6696;DHT22;3385;48.928;10.330;2023-03-31T08:36:05;9.50;99.90
6696;DHT22;3385;48.928;10.330;2023-03-31T08:38:33;9.40;99.90
6696;DHT22;3385;48.928;10.330;2023-03-31T08:41:09;9.60;99.90
6696;DHT22;3385;48.928;10.330;2023-03-31T08:43:42;9.70;99.90
6696;DHT22;3385;48.928;10.330;2023-03-31T08:46:11;9.90;99.90
6696;DHT22;3385;48.928;10.330;2023-03-31T08:48:44;9.90;99.90
6696;DHT22;3385;48.928;10.330;2023-03-31T08:51:14;10.00;99.90
6696;DHT22;3385;48.928;10.330;2023-03-31T08:53:46;10.00;99.90
6696;DHT22;3385;48.928;10.330;2023-03-31T08:56:19;10.10;99.90
6696;DHT22;3385;48.928;10.330;2023-03-31T08:58:48;10.30;99.90
6696;DHT22;3385;48.928;10.330;2023-03-31T09:01:41;10.40;99.90
6696;DHT22;3385;48.928;10.330;2023-03-31T09:10:01;10.60;99.90
6696;DHT22;3385;48.928;10.330;2023-03-31T09:12:45;11.00;99.90
6696;DHT22;3385;48.928;10.330;2023-03-31T09:18:35;11.10;99.90
6696;DHT22;3385;48.928;10.330;2023-03-31T09:24:30;11.10;99.90
6696;DHT22;3385;48.928;10.330;2023-03-31T09:27:04;11.20;99.90
6696;DHT22;3385;48.928;10.330;2023-03-31T09:32:27;11.90;99.90
6696;DHT22;3385;48.928;10.330;2023-03-31T09:35:19;11.70;99.90
6696;DHT22;3385;48.928;10.330;2023-03-31T09:37:50;11.90;99.90
6696;DHT22;3385;48.928;10.330;2023-03-31T09:40:24;12.10;99.90
6696;DHT22;3385;48.928;10.330;2023-03-31T09:43:05;12.20;99.90
6696;DHT22;3385;48.928;10.330;2023-03-31T09:45:32;12.40;99.90
6696;DHT22;3385;48.928;10.330;2023-03-31T09:48:05;12.40;99.90
6696;DHT22;3385;48.928;10.330;2023-03-31T09:50:38;12.90;99.90
6696;DHT22;3385;48.928;10.330;2023-03-31T09:53:14;12.70;99.90
6696;DHT22;3385;48.928;10.330;2023-03-31T09:55:49;13.10;99.90
6696;DHT22;3385;48.928;10.330;2023-03-31T09:58:17;12.90;99.90
6696;DHT22;3385;48.928;10.330;2023-03-31T10:01:13;13.40;99.90
6696;DHT22;3385;48.928;10.330;2023-03-31T10:03:50;13.50;99.90
6696;DHT22;3385;48.928;10.330;2023-03-31T10:06:16;13.50;99.90
6696;DHT22;3385;48.928;10.330;2023-03-31T10:11:17;14.30;99.90
6696;DHT22;3385;48.928;10.330;2023-03-31T10:13:45;14.60;99.90
6696;DHT22;3385;48.928;10.330;2023-03-31T10:16:31;15.20;99.90
6696;DHT22;3385;48.928;10.330;2023-03-31T10:21:46;15.30;99.90
6696;DHT22;3385;48.928;10.330;2023-03-31T10:24:17;14.80;99.90
6696;DHT22;3385;48.928;10.330;2023-03-31T10:26:47;15.00;99.90
6696;DHT22;3385;48.928;10.330;2023-03-31T10:29:18;15.20;99.90
6696;DHT22;3385;48.928;10.330;2023-03-31T10:31:46;15.30;99.90
6696;DHT22;3385;48.928;10.330;2023-03-31T10:34:14;15.00;99.90
6696;DHT22;3385;48.928;10.330;2023-03-31T10:36:49;15.10;99.90
6696;DHT22;3385;48.928;10.330;2023-03-31T10:39:17;15.50;99.90
6696;DHT22;3385;48.928;10.330;2023-03-31T10:41:52;15.20;99.90
6696;DHT22;3385;48.928;10.330;2023-03-31T10:44:37;15.70;99.90
6696;DHT22;3385;48.928;10.330;2023-03-31T10:49:40;15.10;99.90
6696;DHT22;3385;48.928;10.330;2023-03-31T10:52:21;14.60;99.90
6696;DHT22;3385;48.928;10.330;2023-03-31T10:54:56;13.60;99.90
6696;DHT22;3385;48.928;10.330;2023-03-31T10:57:52;12.70;99.90
6696;DHT22;3385;48.928;10.330;2023-03-31T11:26:49;18.20;99.90
6696;DHT22;3385;48.928;10.330;2023-03-31T11:29:36;19.10;99.90
6696;DHT22;3385;48.928;10.330;2023-03-31T11:40:57;18.70;99.90
6696;DHT22;3385;48.928;10.330;2023-03-31T11:43:28;17.00;99.90
6696;DHT22;3385;48.928;10.330;2023-03-31T11:46:06;16.20;99.90
6696;DHT22;3385;48.928;10.330;2023-03-31T11:51:16;16.20;99.90
6696;DHT22;3385;48.928;10.330;2023-03-31T11:53:44;15.70;99.90
6696;DHT22;3385;48.928;10.330;2023-03-31T11:56:12;15.50;99.90
6696;DHT22;3385;48.928;10.330;2023-03-31T11:58:51;16.00;99.90
6696;DHT22;3385;48.928;10.330;2023-03-31T12:01:23;16.00;99.90
6696;DHT22;3385;48.928;10.330;2023-03-31T12:06:34;15.40;99.90
6696;DHT22;3385;48.928;10.330;2023-03-31T12:09:24;14.80;99.90
6696;DHT22;3385;48.928;10.330;2023-03-31T12:12:21;15.00;99.90
6696;DHT22;3385;48.928;10.330;2023-03-31T12:17:46;14.20;99.90
6696;DHT22;3385;48.928;10.330;2023-03-31T12:20:29;13.40;99.90
6696;DHT22;3385;48.928;10.330;2023-03-31T12:22:58;10.40;99.90
6696;DHT22;3385;48.928;10.330;2023-03-31T12:25:28;7.90;99.90
6696;DHT22;3385;48.928;10.330;2023-03-31T12:27:56;7.70;99.90
6696;DHT22;3385;48.928;10.330;2023-03-31T12:30:33;7.40;99.90
6696;DHT22;3385;48.928;10.330;2023-03-31T12:33:27;7.20;99.90
6696;DHT22;3385;48.928;10.330;2023-03-31T12:39:58;7.00;99.90
6696;DHT22;3385;48.928;10.330;2023-03-31T12:47:27;7.60;99.90
6696;DHT22;3385;48.928;10.330;2023-03-31T12:52:59;8.80;99.90
6696;DHT22;3385;48.928;10.330;2023-03-31T13:06:02;9.40;99.90
6696;DHT22;3385;48.928;10.330;2023-03-31T13:08:51;10.50;99.90
6696;DHT22;3385;48.928;10.330;2023-03-31T13:14:21;13.10;99.90
6696;DHT22;3385;48.928;10.330;2023-03-31T13:16:51;12.80;99.90
6696;DHT22;3385;48.928;10.330;2023-03-31T13:19:30;12.60;99.90
6696;DHT22;3385;48.928;10.330;2023-03-31T13:22:02;13.60;99.90
6696;DHT22;3385;48.928;10.330;2023-03-31T13:24:31;14.40;99.90
6696;DHT22;3385;48.928;10.330;2023-03-31T13:27:01;16.20;99.90
6696;DHT22;3385;48.928;10.330;2023-03-31T13:29:44;16.90;99.90
6696;DHT22;3385;48.928;10.330;2023-03-31T13:37:35;15.90;99.90
6696;DHT22;3385;48.928;10.330;2023-03-31T13:48:33;16.30;99.90
6696;DHT22;3385;48.928;10.330;2023-03-31T13:51:37;18.00;99.90
6696;DHT22;3385;48.928;10.330;2023-03-31T13:54:42;17.90;99.90
6696;DHT22;3385;48.928;10.330;2023-03-31T14:00:20;18.50;99.90
6696;DHT22;3385;48.928;10.330;2023-03-31T14:03:28;17.00;99.90
6696;DHT22;3385;48.928;10.330;2023-03-31T14:06:32;15.70;99.90
6696;DHT22;3385;48.928;10.330;2023-03-31T14:09:04;13.90;99.90
6696;DHT22;3385;48.928;10.330;2023-03-31T14:11:31;13.20;99.90
6696;DHT22;3385;48.928;10.330;2023-03-31T14:14:11;13.40;99.90
6696;DHT22;3385;48.928;10.330;2023-03-31T14:16:58;13.20;99.90
6696;DHT22;3385;48.928;10.330;2023-03-31T14:22:28;12.30;99.90
6696;DHT22;3385;48.928;10.330;2023-03-31T14:25:18;12.00;99.90
6696;DHT22;3385;48.928;10.330;2023-03-31T14:38:45;11.50;99.90
6696;DHT22;3385;48.928;10.330;2023-03-31T14:41:17;11.80;99.90
6696;DHT22;3385;48.928;10.330;2023-03-31T14:43:55;12.50;99.90
6696;DHT22;3385;48.928;10.330;2023-03-31T14:46:22;12.40;99.90
6696;DHT22;3385;48.928;10.330;2023-03-31T14:48:50;12.60;99.90
6696;DHT22;3385;48.928;10.330;2023-03-31T14:51:26;12.40;99.90
6696;DHT22;3385;48.928;10.330;2023-03-31T14:54:00;11.70;99.90
6696;DHT22;3385;48.928;10.330;2023-03-31T14:56:47;11.40;99.90
6696;DHT22;3385;48.928;10.330;2023-03-31T14:59:30;11.00;99.90
6696;DHT22;3385;48.928;10.330;2023-03-31T15:01:58;10.40;99.90
6696;DHT22;3385;48.928;10.330;2023-03-31T15:04:27;11.10;99.90
6696;DHT22;3385;48.928;10.330;2023-03-31T15:06:53;10.30;99.90
6696;DHT22;3385;48.928;10.330;2023-03-31T15:09:26;10.30;99.90
6696;DHT22;3385;48.928;10.330;2023-03-31T15:12:01;10.30;99.90
6696;DHT22;3385;48.928;10.330;2023-03-31T15:14:34;10.20;99.90
6696;DHT22;3385;48.928;10.330;2023-03-31T15:17:01;10.50;99.90
6696;DHT22;3385;48.928;10.330;2023-03-31T15:19:34;11.10;99.90
6696;DHT22;3385;48.928;10.330;2023-03-31T15:22:16;12.20;99.90
6696;DHT22;3385;48.928;10.330;2023-03-31T15:24:45;13.70;99.90
6696;DHT22;3385;48.928;10.330;2023-03-31T15:29:50;12.00;99.90
6696;DHT22;3385;48.928;10.330;2023-03-31T15:32:24;11.80;99.90
6696;DHT22;3385;48.928;10.330;2023-03-31T15:34:51;12.50;99.90
6696;DHT22;3385;48.928;10.330;2023-03-31T15:37:41;12.60;99.90
6696;DHT22;3385;48.928;10.330;2023-03-31T15:40:28;13.80;99.90
6696;DHT22;3385;48.928;10.330;2023-03-31T15:43:03;14.40;99.90
6696;DHT22;3385;48.928;10.330;2023-03-31T15:48:02;16.40;99.90
6696;DHT22;3385;48.928;10.330;2023-03-31T15:50:28;17.00;99.90
6696;DHT22;3385;48.928;10.330;2023-03-31T15:52:55;16.90;99.90
6696;DHT22;3385;48.928;10.330;2023-03-31T15:57:52;18.00;99.90
6696;DHT22;3385;48.928;10.330;2023-03-31T16:00:44;18.40;99.90
6696;DHT22;3385;48.928;10.330;2023-03-31T16:03:33;18.60;99.90
6696;DHT22;3385;48.928;10.330;2023-03-31T16:06:20;21.90;99.90
6696;DHT22;3385;48.928;10.330;2023-03-31T16:08:54;17.80;99.90
6696;DHT22;3385;48.928;10.330;2023-03-31T16:11:26;17.30;99.90
6696;DHT22;3385;48.928;10.330;2023-03-31T16:13:56;16.70;99.90
6696;DHT22;3385;48.928;10.330;2023-03-31T16:16:26;17.20;99.90
6696;DHT22;3385;48.928;10.330;2023-03-31T16:19:05;17.90;99.90
6696;DHT22;3385;48.928;10.330;2023-03-31T16:21:40;17.00;99.90
6696;DHT22;3385;48.928;10.330;2023-03-31T16:24:07;15.50;99.90
6696;DHT22;3385;48.928;10.330;2023-03-31T16:26:35;15.30;99.90
6696;DHT22;3385;48.928;10.330;2023-03-31T16:29:02;14.50;99.90
6696;DHT22;3385;48.928;10.330;2023-03-31T16:33:59;12.60;99.90
6696;DHT22;3385;48.928;10.330;2023-03-31T16:36:26;12.00;99.90
6696;DHT22;3385;48.928;10.330;2023-03-31T16:38:52;11.50;99.90
6696;DHT22;3385;48.928;10.330;2023-03-31T16:41:19;11.20;99.90
6696;DHT22;3385;48.928;10.330;2023-03-31T16:43:46;10.90;99.90
6696;DHT22;3385;48.928;10.330;2023-03-31T16:46:11;10.70;99.90
6696;DHT22;3385;48.928;10.330;2023-03-31T16:48:37;10.60;99.90
6696;DHT22;3385;48.928;10.330;2023-03-31T16:51:03;10.70;99.90
6696;DHT22;3385;48.928;10.330;2023-03-31T16:53:34;10.30;99.90
6696;DHT22;3385;48.928;10.330;2023-03-31T16:56:01;10.50;99.90
6696;DHT22;3385;48.928;10.330;2023-03-31T16:58:28;10.00;99.90
6696;DHT22;3385;48.928;10.330;2023-03-31T17:00:54;10.00;99.90
6696;DHT22;3385;48.928;10.330;2023-03-31T17:03:20;10.10;99.90
6696;DHT22;3385;48.928;10.330;2023-03-31T17:05:49;10.20;99.90
6696;DHT22;3385;48.928;10.330;2023-03-31T17:08:17;10.00;99.90
6696;DHT22;3385;48.928;10.330;2023-03-31T17:10:53;10.00;99.90
6696;DHT22;3385;48.928;10.330;2023-03-31T17:13:19;9.90;99.90
6696;DHT22;3385;48.928;10.330;2023-03-31T17:15:45;9.80;99.90
6696;DHT22;3385;48.928;10.330;2023-03-31T17:18:14;9.80;99.90
6696;DHT22;3385;48.928;10.330;2023-03-31T17:20:40;10.00;99.90
6696;DHT22;3385;48.928;10.330;2023-03-31T17:23:06;9.70;99.90
6696;DHT22;3385;48.928;10.330;2023-03-31T17:25:32;9.90;99.90
6696;DHT22;3385;48.928;10.330;2023-03-31T17:27:59;9.60;99.90
6696;DHT22;3385;48.928;10.330;2023-03-31T17:30:26;9.60;99.90
6696;DHT22;3385;48.928;10.330;2023-03-31T17:32:52;9.50;99.90
6696;DHT22;3385;48.928;10.330;2023-03-31T17:35:19;9.60;99.90
6696;DHT22;3385;48.928;10.330;2023-03-31T17:37:48;9.60;99.90
6696;DHT22;3385;48.928;10.330;2023-03-31T17:40:23;9.50;99.90
6696;DHT22;3385;48.928;10.330;2023-03-31T17:42:49;9.70;99.90
6696;DHT22;3385;48.928;10.330;2023-03-31T17:45:15;9.40;99.90
6696;DHT22;3385;48.928;10.330;2023-03-31T17:47:41;9.40;99.90
6696;DHT22;3385;48.928;10.330;2023-03-31T17:50:10;9.30;99.90
6696;DHT22;3385;48.928;10.330;2023-03-31T17:52:35;9.50;99.90
6696;DHT22;3385;48.928;10.330;2023-03-31T17:55:02;9.50;99.90
6696;DHT22;3385;48.928;10.330;2023-03-31T17:57:30;9.30;99.90
6696;DHT22;3385;48.928;10.330;2023-03-31T17:59:57;9.10;99.90
6696;DHT22;3385;48.928;10.330;2023-03-31T18:02:23;9.20;99.90
6696;DHT22;3385;48.928;10.330;2023-03-31T18:04:49;9.10;99.90
6696;DHT22;3385;48.928;10.330;2023-03-31T18:07:15;9.10;99.90
6696;DHT22;3385;48.928;10.330;2023-03-31T18:09:43;9.10;99.90
6696;DHT22;3385;48.928;10.330;2023-03-31T18:12:10;9.10;99.90
6696;DHT22;3385;48.928;10.330;2023-03-31T18:14:35;9.00;99.90
6696;DHT22;3385;48.928;10.330;2023-03-31T18:17:01;9.10;99.90
6696;DHT22;3385;48.928;10.330;2023-03-31T18:19:27;8.90;99.90
6696;DHT22;3385;48.928;10.330;2023-03-31T18:21:54;9.10;99.90
6696;DHT22;3385;48.928;10.330;2023-03-31T18:24:20;9.00;99.90
6696;DHT22;3385;48.928;10.330;2023-03-31T18:26:50;9.00;99.90
6696;DHT22;3385;48.928;10.330;2023-03-31T18:29:15;8.80;99.90
6696;DHT22;3385;48.928;10.330;2023-03-31T18:31:41;9.30;99.90
6696;DHT22;3385;48.928;10.330;2023-03-31T18:34:07;8.40;99.90
6696;DHT22;3385;48.928;10.330;2023-03-31T18:36:33;8.30;99.90
6696;DHT22;3385;48.928;10.330;2023-03-31T18:38:58;8.20;99.90
6696;DHT22;3385;48.928;10.330;2023-03-31T18:41:24;8.00;99.90
6696;DHT22;3385;48.928;10.330;2023-03-31T18:43:50;7.90;99.90
6696;DHT22;3385;48.928;10.330;2023-03-31T18:46:17;7.70;99.90
6696;DHT22;3385;48.928;10.330;2023-03-31T18:48:43;7.60;99.90
6696;DHT22;3385;48.928;10.330;2023-03-31T18:51:10;7.50;99.90
6696;DHT22;3385;48.928;10.330;2023-03-31T18:53:36;7.50;99.90
6696;DHT22;3385;48.928;10.330;2023-03-31T18:56:02;7.40;99.90
6696;DHT22;3385;48.928;10.330;2023-03-31T18:58:29;7.40;99.90
6696;DHT22;3385;48.928;10.330;2023-03-31T19:00:56;7.30;99.90
6696;DHT22;3385;48.928;10.330;2023-03-31T19:03:22;7.20;99.90
6696;DHT22;3385;48.928;10.330;2023-03-31T19:05:49;7.30;99.90
6696;DHT22;3385;48.928;10.330;2023-03-31T19:08:15;7.30;99.90
6696;DHT22;3385;48.928;10.330;2023-03-31T19:10:40;7.20;99.90
6696;DHT22;3385;48.928;10.330;2023-03-31T19:13:06;7.00;99.90
6696;DHT22;3385;48.928;10.330;2023-03-31T19:15:33;7.10;99.90
6696;DHT22;3385;48.928;10.330;2023-03-31T19:18:02;7.10;99.90
6696;DHT22;3385;48.928;10.330;2023-03-31T19:20:28;7.10;99.90
6696;DHT22;3385;48.928;10.330;2023-03-31T19:23:01;6.80;99.90
6696;DHT22;3385;48.928;10.330;2023-03-31T19:25:26;7.00;99.90
6696;DHT22;3385;48.928;10.330;2023-03-31T19:27:52;7.10;99.90
6696;DHT22;3385;48.928;10.330;2023-03-31T19:30:21;6.80;99.90